sensor_id;sensor_type;location;lat;lon;timestamp;P1;durP1;ratioP1;P2;durP2;ratioP2
73239;SDS011;61452;40.054;4.110;2023-04-15T00:03:01;1.33;;;0.52;;
73239;SDS011;61452;40.054;4.110;2023-04-15T00:08:04;2.08;;;0.50;;
73239;SDS011;61452;40.054;4.110;2023-04-15T00:13:07;2.50;;;0.73;;
73239;SDS011;61452;40.054;4.110;2023-04-15T00:18:09;1.33;;;0.70;;
73239;SDS011;61452;40.054;4.110;2023-04-15T00:23:11;0.95;;;0.40;;
73239;SDS011;61452;40.054;4.110;2023-04-15T00:28:13;3.10;;;0.40;;
73239;SDS011;61452;40.054;4.110;2023-04-15T00:33:16;2.15;;;0.65;;
73239;SDS011;61452;40.054;4.110;2023-04-15T00:38:18;1.33;;;0.50;;
73239;SDS011;61452;40.054;4.110;2023-04-15T00:43:20;1.10;;;0.50;;
73239;SDS011;61452;40.054;4.110;2023-04-15T00:48:22;1.73;;;0.65;;
73239;SDS011;61452;40.054;4.110;2023-04-15T00:53:25;2.15;;;0.50;;
73239;SDS011;61452;40.054;4.110;2023-04-15T00:58:27;5.13;;;0.87;;
73239;SDS011;61452;40.054;4.110;2023-04-15T01:03:29;2.30;;;0.82;;
73239;SDS011;61452;40.054;4.110;2023-04-15T01:08:32;5.38;;;0.90;;
73239;SDS011;61452;40.054;4.110;2023-04-15T01:13:34;2.33;;;0.68;;
73239;SDS011;61452;40.054;4.110;2023-04-15T01:18:37;1.58;;;0.50;;
73239;SDS011;61452;40.054;4.110;2023-04-15T01:23:40;2.42;;;0.70;;
73239;SDS011;61452;40.054;4.110;2023-04-15T01:28:47;1.67;;;0.60;;
73239;SDS011;61452;40.054;4.110;2023-04-15T01:33:50;2.92;;;0.70;;
73239;SDS011;61452;40.054;4.110;2023-04-15T01:38:53;1.88;;;0.65;;
73239;SDS011;61452;40.054;4.110;2023-04-15T01:43:56;4.22;;;0.73;;
73239;SDS011;61452;40.054;4.110;2023-04-15T01:48:58;2.15;;;0.47;;
73239;SDS011;61452;40.054;4.110;2023-04-15T01:54:00;3.92;;;0.75;;
73239;SDS011;61452;40.054;4.110;2023-04-15T01:59:03;3.85;;;0.70;;
73239;SDS011;61452;40.054;4.110;2023-04-15T02:04:05;0.98;;;0.50;;
73239;SDS011;61452;40.054;4.110;2023-04-15T02:09:09;3.53;;;0.70;;
73239;SDS011;61452;40.054;4.110;2023-04-15T02:14:11;2.28;;;0.60;;
73239;SDS011;61452;40.054;4.110;2023-04-15T02:19:13;3.13;;;0.82;;
73239;SDS011;61452;40.054;4.110;2023-04-15T02:24:16;3.83;;;0.77;;
73239;SDS011;61452;40.054;4.110;2023-04-15T02:29:18;2.90;;;0.70;;
73239;SDS011;61452;40.054;4.110;2023-04-15T02:34:20;1.55;;;0.50;;
73239;SDS011;61452;40.054;4.110;2023-04-15T02:39:23;2.63;;;0.70;;
73239;SDS011;61452;40.054;4.110;2023-04-15T02:44:25;3.35;;;0.50;;
73239;SDS011;61452;40.054;4.110;2023-04-15T02:49:31;2.33;;;0.50;;
73239;SDS011;61452;40.054;4.110;2023-04-15T02:54:34;1.52;;;0.43;;
73239;SDS011;61452;40.054;4.110;2023-04-15T02:59:37;2.50;;;0.50;;
73239;SDS011;61452;40.054;4.110;2023-04-15T03:04:40;2.15;;;0.50;;
73239;SDS011;61452;40.054;4.110;2023-04-15T03:09:42;2.20;;;0.52;;
73239;SDS011;61452;40.054;4.110;2023-04-15T03:14:44;3.47;;;0.50;;
73239;SDS011;61452;40.054;4.110;2023-04-15T03:19:46;1.38;;;0.70;;
73239;SDS011;61452;40.054;4.110;2023-04-15T03:24:49;1.83;;;0.52;;
73239;SDS011;61452;40.054;4.110;2023-04-15T03:29:51;2.38;;;0.52;;
73239;SDS011;61452;40.054;4.110;2023-04-15T03:34:57;1.55;;;0.57;;
73239;SDS011;61452;40.054;4.110;2023-04-15T03:39:59;4.57;;;0.80;;
73239;SDS011;61452;40.054;4.110;2023-04-15T03:45:01;2.13;;;0.55;;
73239;SDS011;61452;40.054;4.110;2023-04-15T03:50:04;2.88;;;0.50;;
73239;SDS011;61452;40.054;4.110;2023-04-15T03:55:06;1.75;;;0.50;;
73239;SDS011;61452;40.054;4.110;2023-04-15T04:00:10;1.83;;;0.60;;
73239;SDS011;61452;40.054;4.110;2023-04-15T04:05:12;2.28;;;0.73;;
73239;SDS011;61452;40.054;4.110;2023-04-15T04:10:14;1.83;;;0.47;;
73239;SDS011;61452;40.054;4.110;2023-04-15T04:15:16;3.35;;;0.40;;
73239;SDS011;61452;40.054;4.110;2023-04-15T04:20:18;2.40;;;0.60;;
73239;SDS011;61452;40.054;4.110;2023-04-15T04:25:20;1.45;;;0.45;;
73239;SDS011;61452;40.054;4.110;2023-04-15T04:30:23;1.20;;;0.40;;
73239;SDS011;61452;40.054;4.110;2023-04-15T04:35:25;1.88;;;0.52;;
73239;SDS011;61452;40.054;4.110;2023-04-15T04:40:28;2.15;;;0.40;;
73239;SDS011;61452;40.054;4.110;2023-04-15T04:45:31;1.67;;;0.40;;
73239;SDS011;61452;40.054;4.110;2023-04-15T04:50:33;1.70;;;0.50;;
73239;SDS011;61452;40.054;4.110;2023-04-15T04:55:36;2.72;;;0.70;;
73239;SDS011;61452;40.054;4.110;2023-04-15T05:00:39;1.48;;;0.57;;
73239;SDS011;61452;40.054;4.110;2023-04-15T05:05:41;1.27;;;0.50;;
73239;SDS011;61452;40.054;4.110;2023-04-15T05:10:44;2.50;;;0.82;;
73239;SDS011;61452;40.054;4.110;2023-04-15T05:15:46;1.75;;;0.47;;
73239;SDS011;61452;40.054;4.110;2023-04-15T05:20:48;0.73;;;0.38;;
73239;SDS011;61452;40.054;4.110;2023-04-15T05:25:50;1.40;;;0.40;;
73239;SDS011;61452;40.054;4.110;2023-04-15T05:30:53;1.55;;;0.50;;
73239;SDS011;61452;40.054;4.110;2023-04-15T05:35:55;0.75;;;0.30;;
73239;SDS011;61452;40.054;4.110;2023-04-15T05:40:57;1.10;;;0.40;;
73239;SDS011;61452;40.054;4.110;2023-04-15T05:45:59;1.05;;;0.47;;
73239;SDS011;61452;40.054;4.110;2023-04-15T05:51:01;1.13;;;0.40;;
73239;SDS011;61452;40.054;4.110;2023-04-15T05:56:04;1.23;;;0.30;;
73239;SDS011;61452;40.054;4.110;2023-04-15T06:01:06;2.10;;;0.30;;
73239;SDS011;61452;40.054;4.110;2023-04-15T06:06:08;1.23;;;0.40;;
73239;SDS011;61452;40.054;4.110;2023-04-15T06:11:10;1.08;;;0.40;;
73239;SDS011;61452;40.054;4.110;2023-04-15T06:16:12;0.98;;;0.40;;
73239;SDS011;61452;40.054;4.110;2023-04-15T06:21:15;1.40;;;0.40;;
73239;SDS011;61452;40.054;4.110;2023-04-15T06:26:17;1.40;;;0.30;;
73239;SDS011;61452;40.054;4.110;2023-04-15T06:31:19;1.67;;;0.45;;
73239;SDS011;61452;40.054;4.110;2023-04-15T06:36:21;1.77;;;0.40;;
73239;SDS011;61452;40.054;4.110;2023-04-15T06:41:23;0.63;;;0.20;;
73239;SDS011;61452;40.054;4.110;2023-04-15T06:46:26;1.70;;;0.40;;
73239;SDS011;61452;40.054;4.110;2023-04-15T06:51:28;0.82;;;0.30;;
73239;SDS011;61452;40.054;4.110;2023-04-15T06:56:31;0.73;;;0.30;;
73239;SDS011;61452;40.054;4.110;2023-04-15T07:01:34;0.98;;;0.30;;
73239;SDS011;61452;40.054;4.110;2023-04-15T07:06:36;1.15;;;0.20;;
73239;SDS011;61452;40.054;4.110;2023-04-15T07:11:39;1.83;;;0.40;;
73239;SDS011;61452;40.054;4.110;2023-04-15T07:16:41;0.70;;;0.35;;
73239;SDS011;61452;40.054;4.110;2023-04-15T07:21:43;0.55;;;0.22;;
73239;SDS011;61452;40.054;4.110;2023-04-15T07:26:45;0.40;;;0.20;;
73239;SDS011;61452;40.054;4.110;2023-04-15T07:31:47;1.52;;;0.22;;
73239;SDS011;61452;40.054;4.110;2023-04-15T07:36:49;0.75;;;0.28;;
73239;SDS011;61452;40.054;4.110;2023-04-15T07:41:52;1.08;;;0.30;;
73239;SDS011;61452;40.054;4.110;2023-04-15T07:46:55;2.45;;;0.32;;
73239;SDS011;61452;40.054;4.110;2023-04-15T07:51:57;0.70;;;0.30;;
73239;SDS011;61452;40.054;4.110;2023-04-15T07:57:00;1.05;;;0.30;;
73239;SDS011;61452;40.054;4.110;2023-04-15T08:02:03;1.10;;;0.50;;
73239;SDS011;61452;40.054;4.110;2023-04-15T08:07:05;0.80;;;0.40;;
73239;SDS011;61452;40.054;4.110;2023-04-15T08:12:08;1.40;;;0.40;;
73239;SDS011;61452;40.054;4.110;2023-04-15T08:17:13;0.73;;;0.28;;
73239;SDS011;61452;40.054;4.110;2023-04-15T08:22:15;1.13;;;0.30;;
73239;SDS011;61452;40.054;4.110;2023-04-15T08:27:18;1.48;;;0.32;;
73239;SDS011;61452;40.054;4.110;2023-04-15T08:32:21;0.73;;;0.40;;
73239;SDS011;61452;40.054;4.110;2023-04-15T08:37:23;1.83;;;0.30;;
73239;SDS011;61452;40.054;4.110;2023-04-15T08:42:47;0.50;;;0.20;;
73239;SDS011;61452;40.054;4.110;2023-04-15T08:47:50;0.90;;;0.30;;
73239;SDS011;61452;40.054;4.110;2023-04-15T08:53:00;0.60;;;0.20;;
73239;SDS011;61452;40.054;4.110;2023-04-15T08:58:02;1.95;;;0.20;;
73239;SDS011;61452;40.054;4.110;2023-04-15T09:03:06;0.90;;;0.20;;
73239;SDS011;61452;40.054;4.110;2023-04-15T09:08:09;1.10;;;0.50;;
73239;SDS011;61452;40.054;4.110;2023-04-15T09:13:11;0.90;;;0.20;;
73239;SDS011;61452;40.054;4.110;2023-04-15T09:18:25;0.85;;;0.20;;
73239;SDS011;61452;40.054;4.110;2023-04-15T09:23:36;1.00;;;0.30;;
73239;SDS011;61452;40.054;4.110;2023-04-15T09:28:41;0.75;;;0.40;;
73239;SDS011;61452;40.054;4.110;2023-04-15T09:33:54;1.08;;;0.20;;
73239;SDS011;61452;40.054;4.110;2023-04-15T09:38:59;1.50;;;0.30;;
73239;SDS011;61452;40.054;4.110;2023-04-15T09:44:01;1.77;;;0.30;;
73239;SDS011;61452;40.054;4.110;2023-04-15T09:49:08;2.22;;;0.55;;
73239;SDS011;61452;40.054;4.110;2023-04-15T09:54:12;3.30;;;0.60;;
73239;SDS011;61452;40.054;4.110;2023-04-15T09:59:14;1.45;;;0.40;;
73239;SDS011;61452;40.054;4.110;2023-04-15T10:04:16;4.28;;;0.65;;
73239;SDS011;61452;40.054;4.110;2023-04-15T10:09:19;2.85;;;0.43;;
73239;SDS011;61452;40.054;4.110;2023-04-15T10:14:21;5.75;;;1.10;;
73239;SDS011;61452;40.054;4.110;2023-04-15T10:19:26;6.03;;;1.00;;
73239;SDS011;61452;40.054;4.110;2023-04-15T10:24:32;5.13;;;0.90;;
73239;SDS011;61452;40.054;4.110;2023-04-15T10:29:34;5.35;;;0.98;;
73239;SDS011;61452;40.054;4.110;2023-04-15T10:34:37;4.72;;;0.63;;
73239;SDS011;61452;40.054;4.110;2023-04-15T10:39:40;6.38;;;0.90;;
73239;SDS011;61452;40.054;4.110;2023-04-15T10:44:44;6.70;;;1.20;;
73239;SDS011;61452;40.054;4.110;2023-04-15T10:49:51;9.23;;;1.60;;
73239;SDS011;61452;40.054;4.110;2023-04-15T11:00:12;5.88;;;1.45;;
73239;SDS011;61452;40.054;4.110;2023-04-15T11:05:15;8.52;;;1.77;;
73239;SDS011;61452;40.054;4.110;2023-04-15T11:15:45;7.28;;;1.52;;
73239;SDS011;61452;40.054;4.110;2023-04-15T11:20:52;10.82;;;1.73;;
73239;SDS011;61452;40.054;4.110;2023-04-15T11:26:06;8.20;;;1.77;;
73239;SDS011;61452;40.054;4.110;2023-04-15T11:31:16;9.77;;;1.80;;
73239;SDS011;61452;40.054;4.110;2023-04-15T11:36:19;8.50;;;1.95;;
73239;SDS011;61452;40.054;4.110;2023-04-15T11:41:21;5.05;;;2.47;;
73239;SDS011;61452;40.054;4.110;2023-04-15T11:46:30;10.52;;;2.03;;
73239;SDS011;61452;40.054;4.110;2023-04-15T11:51:33;11.20;;;1.70;;
73239;SDS011;61452;40.054;4.110;2023-04-15T11:56:36;8.43;;;2.05;;
73239;SDS011;61452;40.054;4.110;2023-04-15T12:01:38;8.68;;;2.10;;
73239;SDS011;61452;40.054;4.110;2023-04-15T12:06:43;8.63;;;2.00;;
73239;SDS011;61452;40.054;4.110;2023-04-15T12:11:49;8.20;;;2.45;;
73239;SDS011;61452;40.054;4.110;2023-04-15T12:16:56;9.90;;;1.92;;
73239;SDS011;61452;40.054;4.110;2023-04-15T12:22:02;11.45;;;2.25;;
73239;SDS011;61452;40.054;4.110;2023-04-15T12:27:07;9.68;;;2.42;;
73239;SDS011;61452;40.054;4.110;2023-04-15T12:32:12;13.68;;;2.60;;
73239;SDS011;61452;40.054;4.110;2023-04-15T12:37:20;6.20;;;1.90;;
73239;SDS011;61452;40.054;4.110;2023-04-15T12:42:22;10.32;;;1.95;;
73239;SDS011;61452;40.054;4.110;2023-04-15T12:47:25;13.73;;;2.50;;
73239;SDS011;61452;40.054;4.110;2023-04-15T12:52:27;9.60;;;1.92;;
73239;SDS011;61452;40.054;4.110;2023-04-15T12:57:29;10.52;;;1.90;;
73239;SDS011;61452;40.054;4.110;2023-04-15T13:02:31;10.60;;;2.35;;
73239;SDS011;61452;40.054;4.110;2023-04-15T13:07:34;12.65;;;2.50;;
73239;SDS011;61452;40.054;4.110;2023-04-15T13:12:36;10.30;;;2.10;;
73239;SDS011;61452;40.054;4.110;2023-04-15T13:17:39;8.20;;;2.03;;
73239;SDS011;61452;40.054;4.110;2023-04-15T13:22:41;12.02;;;2.33;;
73239;SDS011;61452;40.054;4.110;2023-04-15T13:27:43;12.32;;;2.28;;
73239;SDS011;61452;40.054;4.110;2023-04-15T13:32:45;7.85;;;2.13;;
73239;SDS011;61452;40.054;4.110;2023-04-15T13:37:51;11.20;;;2.15;;
73239;SDS011;61452;40.054;4.110;2023-04-15T13:42:54;9.93;;;2.75;;
73239;SDS011;61452;40.054;4.110;2023-04-15T13:47:56;9.23;;;2.20;;
73239;SDS011;61452;40.054;4.110;2023-04-15T13:52:59;10.13;;;2.33;;
73239;SDS011;61452;40.054;4.110;2023-04-15T13:58:01;11.35;;;2.03;;
73239;SDS011;61452;40.054;4.110;2023-04-15T14:03:03;10.85;;;2.13;;
73239;SDS011;61452;40.054;4.110;2023-04-15T14:08:06;9.68;;;2.15;;
73239;SDS011;61452;40.054;4.110;2023-04-15T14:13:08;12.00;;;2.38;;
73239;SDS011;61452;40.054;4.110;2023-04-15T14:18:10;13.38;;;2.47;;
73239;SDS011;61452;40.054;4.110;2023-04-15T14:23:12;12.50;;;2.30;;
73239;SDS011;61452;40.054;4.110;2023-04-15T14:28:15;12.63;;;2.30;;
73239;SDS011;61452;40.054;4.110;2023-04-15T14:33:17;15.75;;;3.55;;
73239;SDS011;61452;40.054;4.110;2023-04-15T14:38:19;10.27;;;2.42;;
73239;SDS011;61452;40.054;4.110;2023-04-15T14:43:23;11.02;;;2.20;;
73239;SDS011;61452;40.054;4.110;2023-04-15T14:48:25;13.00;;;2.75;;
73239;SDS011;61452;40.054;4.110;2023-04-15T14:53:27;10.30;;;2.28;;
73239;SDS011;61452;40.054;4.110;2023-04-15T14:58:29;8.80;;;1.92;;
73239;SDS011;61452;40.054;4.110;2023-04-15T15:03:31;9.80;;;2.78;;
73239;SDS011;61452;40.054;4.110;2023-04-15T15:08:34;11.05;;;2.28;;
73239;SDS011;61452;40.054;4.110;2023-04-15T15:13:37;14.63;;;2.33;;
73239;SDS011;61452;40.054;4.110;2023-04-15T15:18:39;13.63;;;2.35;;
73239;SDS011;61452;40.054;4.110;2023-04-15T15:23:41;12.98;;;2.67;;
73239;SDS011;61452;40.054;4.110;2023-04-15T15:28:44;12.93;;;2.35;;
73239;SDS011;61452;40.054;4.110;2023-04-15T15:33:46;10.00;;;2.30;;
73239;SDS011;61452;40.054;4.110;2023-04-15T15:38:48;9.80;;;1.67;;
73239;SDS011;61452;40.054;4.110;2023-04-15T15:43:52;14.57;;;2.20;;
73239;SDS011;61452;40.054;4.110;2023-04-15T15:48:55;11.23;;;3.28;;
73239;SDS011;61452;40.054;4.110;2023-04-15T15:53:57;14.23;;;2.05;;
73239;SDS011;61452;40.054;4.110;2023-04-15T15:58:59;16.33;;;2.30;;
73239;SDS011;61452;40.054;4.110;2023-04-15T16:04:01;7.93;;;2.05;;
73239;SDS011;61452;40.054;4.110;2023-04-15T16:09:04;7.30;;;2.08;;
73239;SDS011;61452;40.054;4.110;2023-04-15T16:14:06;10.35;;;1.83;;
73239;SDS011;61452;40.054;4.110;2023-04-15T16:19:09;13.25;;;2.20;;
73239;SDS011;61452;40.054;4.110;2023-04-15T16:24:11;9.45;;;1.63;;
73239;SDS011;61452;40.054;4.110;2023-04-15T16:29:13;6.35;;;1.55;;
73239;SDS011;61452;40.054;4.110;2023-04-15T16:34:15;11.13;;;1.92;;
73239;SDS011;61452;40.054;4.110;2023-04-15T16:39:18;14.25;;;1.92;;
73239;SDS011;61452;40.054;4.110;2023-04-15T16:44:20;5.95;;;1.40;;
73239;SDS011;61452;40.054;4.110;2023-04-15T16:49:22;6.53;;;1.50;;
73239;SDS011;61452;40.054;4.110;2023-04-15T16:54:24;7.15;;;1.85;;
73239;SDS011;61452;40.054;4.110;2023-04-15T16:59:26;10.68;;;1.38;;
73239;SDS011;61452;40.054;4.110;2023-04-15T17:04:29;6.90;;;1.63;;
73239;SDS011;61452;40.054;4.110;2023-04-15T17:09:31;5.65;;;1.42;;
73239;SDS011;61452;40.054;4.110;2023-04-15T17:14:33;5.50;;;1.33;;
73239;SDS011;61452;40.054;4.110;2023-04-15T17:19:36;7.50;;;1.45;;
73239;SDS011;61452;40.054;4.110;2023-04-15T17:24:38;7.63;;;1.60;;
73239;SDS011;61452;40.054;4.110;2023-04-15T17:29:40;6.38;;;1.35;;
73239;SDS011;61452;40.054;4.110;2023-04-15T17:34:42;6.78;;;1.50;;
73239;SDS011;61452;40.054;4.110;2023-04-15T17:39:51;5.57;;;1.40;;
73239;SDS011;61452;40.054;4.110;2023-04-15T17:44:53;4.78;;;1.17;;
73239;SDS011;61452;40.054;4.110;2023-04-15T17:49:55;7.47;;;1.38;;
73239;SDS011;61452;40.054;4.110;2023-04-15T17:54:57;3.83;;;1.05;;
73239;SDS011;61452;40.054;4.110;2023-04-15T17:59:59;6.50;;;1.30;;
73239;SDS011;61452;40.054;4.110;2023-04-15T18:05:02;3.70;;;1.17;;
73239;SDS011;61452;40.054;4.110;2023-04-15T18:10:05;4.10;;;0.90;;
73239;SDS011;61452;40.054;4.110;2023-04-15T18:15:09;7.45;;;1.45;;
73239;SDS011;61452;40.054;4.110;2023-04-15T18:20:12;8.10;;;1.30;;
73239;SDS011;61452;40.054;4.110;2023-04-15T18:25:14;4.22;;;1.10;;
73239;SDS011;61452;40.054;4.110;2023-04-15T18:30:17;6.93;;;1.40;;
73239;SDS011;61452;40.054;4.110;2023-04-15T18:35:19;6.15;;;1.52;;
73239;SDS011;61452;40.054;4.110;2023-04-15T18:40:21;5.82;;;1.42;;
73239;SDS011;61452;40.054;4.110;2023-04-15T18:45:23;8.10;;;1.45;;
73239;SDS011;61452;40.054;4.110;2023-04-15T18:50:25;5.93;;;1.90;;
73239;SDS011;61452;40.054;4.110;2023-04-15T18:55:27;6.80;;;1.70;;
73239;SDS011;61452;40.054;4.110;2023-04-15T19:00:30;7.28;;;1.92;;
73239;SDS011;61452;40.054;4.110;2023-04-15T19:05:32;9.60;;;2.13;;
73239;SDS011;61452;40.054;4.110;2023-04-15T19:10:34;10.52;;;2.22;;
73239;SDS011;61452;40.054;4.110;2023-04-15T19:15:36;7.53;;;1.88;;
73239;SDS011;61452;40.054;4.110;2023-04-15T19:20:39;8.88;;;1.77;;
73239;SDS011;61452;40.054;4.110;2023-04-15T19:25:41;9.73;;;2.03;;
73239;SDS011;61452;40.054;4.110;2023-04-15T19:30:43;18.70;;;2.55;;
73239;SDS011;61452;40.054;4.110;2023-04-15T19:35:45;13.45;;;2.40;;
73239;SDS011;61452;40.054;4.110;2023-04-15T19:40:50;14.00;;;2.53;;
73239;SDS011;61452;40.054;4.110;2023-04-15T19:45:52;14.63;;;2.38;;
73239;SDS011;61452;40.054;4.110;2023-04-15T19:50:55;18.75;;;3.00;;
73239;SDS011;61452;40.054;4.110;2023-04-15T19:55:58;15.60;;;2.63;;
73239;SDS011;61452;40.054;4.110;2023-04-15T20:01:00;16.67;;;2.63;;
73239;SDS011;61452;40.054;4.110;2023-04-15T20:06:02;17.80;;;3.03;;
73239;SDS011;61452;40.054;4.110;2023-04-15T20:11:04;14.88;;;2.15;;
73239;SDS011;61452;40.054;4.110;2023-04-15T20:16:07;15.40;;;2.90;;
73239;SDS011;61452;40.054;4.110;2023-04-15T20:21:09;14.13;;;2.70;;
73239;SDS011;61452;40.054;4.110;2023-04-15T20:26:11;18.27;;;3.50;;
73239;SDS011;61452;40.054;4.110;2023-04-15T20:31:13;17.48;;;3.55;;
73239;SDS011;61452;40.054;4.110;2023-04-15T20:36:15;17.90;;;2.97;;
73239;SDS011;61452;40.054;4.110;2023-04-15T20:41:18;18.05;;;3.35;;
73239;SDS011;61452;40.054;4.110;2023-04-15T20:46:20;17.05;;;3.33;;
73239;SDS011;61452;40.054;4.110;2023-04-15T20:51:23;24.30;;;4.20;;
73239;SDS011;61452;40.054;4.110;2023-04-15T21:01:29;15.18;;;3.70;;
73239;SDS011;61452;40.054;4.110;2023-04-15T21:06:32;23.10;;;4.60;;
73239;SDS011;61452;40.054;4.110;2023-04-15T21:11:35;20.95;;;4.22;;
73239;SDS011;61452;40.054;4.110;2023-04-15T21:16:40;23.98;;;5.95;;
73239;SDS011;61452;40.054;4.110;2023-04-15T21:21:42;28.48;;;5.70;;
73239;SDS011;61452;40.054;4.110;2023-04-15T21:26:44;16.25;;;3.83;;
73239;SDS011;61452;40.054;4.110;2023-04-15T21:31:46;31.95;;;6.50;;
73239;SDS011;61452;40.054;4.110;2023-04-15T21:36:49;33.03;;;6.43;;
73239;SDS011;61452;40.054;4.110;2023-04-15T21:41:51;30.45;;;5.85;;
73239;SDS011;61452;40.054;4.110;2023-04-15T21:46:53;34.28;;;6.75;;
73239;SDS011;61452;40.054;4.110;2023-04-15T21:51:55;26.70;;;5.00;;
73239;SDS011;61452;40.054;4.110;2023-04-15T21:57:01;31.42;;;6.00;;
73239;SDS011;61452;40.054;4.110;2023-04-15T22:02:04;32.13;;;6.43;;
73239;SDS011;61452;40.054;4.110;2023-04-15T22:07:06;27.05;;;6.70;;
73239;SDS011;61452;40.054;4.110;2023-04-15T22:12:08;28.05;;;6.32;;
73239;SDS011;61452;40.054;4.110;2023-04-15T22:17:10;36.58;;;6.72;;
73239;SDS011;61452;40.054;4.110;2023-04-15T22:22:12;38.78;;;7.63;;
73239;SDS011;61452;40.054;4.110;2023-04-15T22:27:14;28.25;;;6.82;;
73239;SDS011;61452;40.054;4.110;2023-04-15T22:32:17;34.75;;;7.07;;
73239;SDS011;61452;40.054;4.110;2023-04-15T22:37:19;31.90;;;7.03;;
73239;SDS011;61452;40.054;4.110;2023-04-15T22:42:21;34.00;;;7.85;;
73239;SDS011;61452;40.054;4.110;2023-04-15T22:47:23;28.15;;;5.60;;
73239;SDS011;61452;40.054;4.110;2023-04-15T22:52:25;27.38;;;6.47;;
73239;SDS011;61452;40.054;4.110;2023-04-15T22:57:31;40.75;;;8.98;;
73239;SDS011;61452;40.054;4.110;2023-04-15T23:02:34;30.90;;;6.88;;
73239;SDS011;61452;40.054;4.110;2023-04-15T23:07:36;38.20;;;8.30;;
73239;SDS011;61452;40.054;4.110;2023-04-15T23:12:38;35.75;;;7.10;;
73239;SDS011;61452;40.054;4.110;2023-04-15T23:17:40;34.22;;;7.32;;
73239;SDS011;61452;40.054;4.110;2023-04-15T23:22:43;29.30;;;6.85;;
73239;SDS011;61452;40.054;4.110;2023-04-15T23:27:45;33.15;;;7.45;;
73239;SDS011;61452;40.054;4.110;2023-04-15T23:32:47;28.23;;;6.63;;
73239;SDS011;61452;40.054;4.110;2023-04-15T23:37:50;24.92;;;6.53;;
73239;SDS011;61452;40.054;4.110;2023-04-15T23:42:52;31.65;;;7.78;;
73239;SDS011;61452;40.054;4.110;2023-04-15T23:47:54;29.63;;;6.30;;
73239;SDS011;61452;40.054;4.110;2023-04-15T23:52:56;38.75;;;7.38;;
73239;SDS011;61452;40.054;4.110;2023-04-15T23:57:58;35.00;;;6.90;;
